Time;durP1;ratioP1;P1;durP2;ratioP2;P2;SDS_P1;SDS_P2;PMS_P1;PMS_P2;Temp;Humidity;BMP_temperature;BMP_pressure;BME280_temperature;BME280_humidity;BME280_pressure;Samples;Min_cycle;Max_cycle;Signal;HPM_P1;HPM_P2
2021/06/29 00:01:33;;;;;;;10.73;9.73;;;17.10;99.90;;;;;;4958440;28;20646;-90
2021/06/29 00:04:02;;;;;;;12.83;11.90;;;17.10;99.90;;;;;;4956510;28;20662;-89
2021/06/29 00:06:31;;;;;;;11.50;10.60;;;17.10;99.90;;;;;;4965209;28;20638;-91
2021/06/29 00:08:58;;;;;;;15.83;14.50;;;17.20;99.90;;;;;;4959796;28;21180;-91
2021/06/29 00:11:39;;;;;;;10.37;9.40;;;17.10;99.90;;;;;;4953389;28;21429;-92
2021/06/29 00:14:06;;;;;;;14.00;12.90;;;17.20;99.90;;;;;;4950403;28;20696;-90
2021/06/29 00:16:39;;;;;;;16.37;13.80;;;17.10;99.90;;;;;;4951304;28;20637;-91
2021/06/29 00:19:14;;;;;;;16.63;15.00;;;17.10;99.90;;;;;;4951389;28;20928;-90
2021/06/29 00:21:43;;;;;;;13.97;12.77;;;17.10;99.90;;;;;;4949937;28;21071;-91
2021/06/29 00:24:10;;;;;;;13.87;12.80;;;17.10;99.90;;;;;;4949431;28;20645;-90
2021/06/29 00:26:37;;;;;;;13.50;12.43;;;17.10;99.90;;;;;;4953076;28;20691;-89
2021/06/29 00:29:06;;;;;;;14.13;13.03;;;17.20;99.90;;;;;;4950069;28;21192;-91
2021/06/29 00:31:37;;;;;;;13.20;12.20;;;17.20;99.90;;;;;;4951077;28;20678;-91
2021/06/29 00:34:04;;;;;;;9.17;8.57;;;17.10;99.90;;;;;;4948838;28;20737;-90
2021/06/29 00:36:37;;;;;;;8.37;7.77;;;17.20;99.90;;;;;;4952170;28;20649;-90
2021/06/29 00:39:07;;;;;;;7.13;6.40;;;17.10;99.90;;;;;;4950834;28;20642;-90
2021/06/29 00:41:35;;;;;;;5.10;4.40;;;17.00;99.90;;;;;;4953759;28;21011;-90
2021/06/29 00:44:02;;;;;;;5.27;4.87;;;17.00;99.90;;;;;;4949656;28;20637;-90
2021/06/29 00:46:36;;;;;;;8.00;5.03;;;17.00;99.90;;;;;;4952205;28;20830;-91
2021/06/29 00:49:24;;;;;;;4.67;4.37;;;16.90;99.90;;;;;;4950218;28;20733;-90
2021/06/29 00:51:53;;;;;;;4.90;4.60;;;16.90;99.90;;;;;;4950358;28;20650;-90
2021/06/29 00:54:21;;;;;;;4.33;4.00;;;17.00;99.90;;;;;;4951853;28;20634;-90
2021/06/29 00:56:53;;;;;;;4.07;3.77;;;16.90;99.90;;;;;;4955237;28;20653;-90
2021/06/29 00:59:21;;;;;;;5.87;4.37;;;16.90;99.90;;;;;;4950498;28;20646;-90
2021/06/29 01:01:54;;;;;;;7.17;4.57;;;16.90;99.90;;;;;;4948320;28;20635;-91
2021/06/29 01:04:23;;;;;;;4.43;3.83;;;17.00;99.90;;;;;;4949671;28;20737;-91
2021/06/29 01:07:03;;;;;;;3.77;3.53;;;16.90;99.90;;;;;;4950071;28;20634;-91
2021/06/29 01:09:31;;;;;;;5.70;5.30;;;17.00;99.90;;;;;;4948747;28;21235;-90
2021/06/29 01:12:02;;;;;;;5.43;4.60;;;16.90;99.90;;;;;;4947930;28;20673;-90
2021/06/29 01:14:44;;;;;;;4.30;4.00;;;16.90;99.90;;;;;;4951257;28;20643;-90
2021/06/29 01:17:13;;;;;;;5.97;5.10;;;17.00;99.90;;;;;;4948873;28;21042;-90
2021/06/29 01:19:45;;;;;;;12.53;5.10;;;17.00;99.90;;;;;;4938408;28;20662;-90
2021/06/29 01:22:16;;;;;;;4.40;4.07;;;16.90;99.90;;;;;;4948901;28;20638;-89
2021/06/29 01:24:46;;;;;;;5.53;4.50;;;17.00;99.90;;;;;;4946567;28;21005;-89
2021/06/29 01:33:09;;;;;;;4.80;3.90;;;16.90;99.90;;;;;;4927163;28;20670;-90
2021/06/29 01:35:38;;;;;;;4.50;4.20;;;17.00;99.90;;;;;;4949308;28;20630;-89
2021/06/29 01:38:16;;;;;;;6.03;4.20;;;16.90;99.90;;;;;;4948354;28;20634;-90
2021/06/29 01:40:44;;;;;;;4.40;4.10;;;16.90;99.90;;;;;;4950614;28;20666;-89
2021/06/29 01:43:24;;;;;;;4.80;4.43;;;16.90;99.90;;;;;;4948411;28;20639;-90
2021/06/29 01:45:53;;;;;;;4.47;3.87;;;16.80;99.90;;;;;;4952995;28;20689;-89
2021/06/29 01:48:36;;;;;;;4.70;4.30;;;16.90;99.90;;;;;;4948803;28;20638;-90
2021/06/29 01:51:11;;;;;;;5.60;4.67;;;16.90;99.90;;;;;;4949734;28;20662;-91
2021/06/29 01:53:47;;;;;;;4.83;4.53;;;16.80;99.90;;;;;;4951376;28;20644;-90
2021/06/29 01:56:15;;;;;;;6.33;5.30;;;16.80;99.90;;;;;;4952277;28;20638;-90
2021/06/29 01:58:50;;;;;;;6.87;5.97;;;16.80;99.90;;;;;;4947403;28;20637;-90
2021/06/29 02:01:20;;;;;;;6.27;5.60;;;16.80;99.90;;;;;;4957226;28;20676;-90
2021/06/29 02:03:47;;;;;;;7.57;7.07;;;16.80;99.90;;;;;;4950644;28;20726;-90
2021/06/29 02:06:19;;;;;;;7.07;6.40;;;16.80;99.90;;;;;;4952985;28;20649;-90
2021/06/29 02:08:47;;;;;;;9.33;8.57;;;16.80;99.90;;;;;;4948093;28;20649;-91
2021/06/29 02:11:16;;;;;;;8.50;7.80;;;16.80;99.90;;;;;;4953243;28;21327;-91
2021/06/29 02:13:50;;;;;;;7.63;7.03;;;16.90;99.90;;;;;;4953551;28;20638;-89
2021/06/29 02:16:17;;;;;;;6.90;6.30;;;16.90;99.90;;;;;;4950189;28;21205;-91
2021/06/29 02:18:44;;;;;;;7.57;6.97;;;16.80;99.90;;;;;;4955103;28;20754;-89
2021/06/29 02:21:12;;;;;;;8.13;7.37;;;16.80;99.90;;;;;;4955939;28;20753;-91
2021/06/29 02:23:40;;;;;;;6.93;6.43;;;16.90;99.90;;;;;;4952380;28;20638;-91
2021/06/29 02:26:09;;;;;;;6.73;6.07;;;16.80;99.90;;;;;;4949090;28;20639;-90
2021/06/29 02:28:36;;;;;;;7.80;6.87;;;16.80;99.90;;;;;;4949433;28;20674;-90
2021/06/29 02:31:09;;;;;;;6.30;5.70;;;16.80;99.90;;;;;;4946424;28;20744;-91
2021/06/29 02:33:42;;;;;;;6.03;5.40;;;16.80;99.90;;;;;;4947667;28;20658;-90
2021/06/29 02:36:15;;;;;;;6.10;5.70;;;16.80;99.90;;;;;;4945539;28;20965;-91
2021/06/29 02:38:47;;;;;;;13.90;6.13;;;16.80;99.90;;;;;;4945620;28;20639;-91
2021/06/29 02:41:22;;;;;;;4.70;4.30;;;16.80;99.90;;;;;;4946351;28;20658;-90
2021/06/29 02:43:55;;;;;;;5.27;4.97;;;16.70;99.90;;;;;;4948074;28;20629;-91
2021/06/29 02:46:29;;;;;;;5.67;5.17;;;16.70;99.90;;;;;;4948653;28;20634;-91
2021/06/29 02:48:57;;;;;;;6.00;3.90;;;16.70;99.90;;;;;;4946455;28;20721;-91
2021/06/29 02:51:27;;;;;;;4.40;4.10;;;16.70;99.90;;;;;;4946207;28;20660;-91
2021/06/29 02:53:54;;;;;;;3.20;2.97;;;16.80;99.90;;;;;;4949554;28;20743;-90
2021/06/29 02:56:39;;;;;;;4.07;3.67;;;16.70;99.90;;;;;;4947086;28;20645;-90
2021/06/29 02:59:07;;;;;;;2.83;2.63;;;16.70;99.90;;;;;;4945497;28;20669;-90
2021/06/29 03:01:35;;;;;;;4.03;3.63;;;16.70;99.90;;;;;;4952163;28;20660;-90
2021/06/29 03:04:02;;;;;;;3.27;2.97;;;16.80;99.90;;;;;;4951252;28;20730;-91
2021/06/29 03:06:29;;;;;;;2.83;2.63;;;16.60;99.90;;;;;;4947264;28;20641;-91
2021/06/29 03:09:00;;;;;;;3.90;3.07;;;16.70;99.90;;;;;;4950086;28;20729;-92
2021/06/29 03:11:29;;;;;;;2.47;2.30;;;16.60;99.90;;;;;;4947918;28;21019;-89
2021/06/29 03:13:56;;;;;;;3.20;2.93;;;16.60;99.90;;;;;;4946058;28;20649;-91
2021/06/29 03:16:23;;;;;;;6.00;3.07;;;16.60;99.90;;;;;;4947391;28;20646;-91
2021/06/29 03:18:52;;;;;;;4.60;2.80;;;16.60;99.90;;;;;;4946413;28;20670;-90
2021/06/29 03:21:19;;;;;;;2.80;2.50;;;16.70;99.90;;;;;;4947144;28;20685;-90
2021/06/29 03:23:51;;;;;;;4.07;3.30;;;16.70;99.90;;;;;;4945815;28;20635;-90
2021/06/29 03:26:22;;;;;;;3.40;3.10;;;16.60;99.90;;;;;;4946827;28;20635;-90
2021/06/29 03:28:59;;;;;;;3.30;3.10;;;16.60;99.90;;;;;;4947839;28;20641;-91
2021/06/29 03:31:33;;;;;;;3.30;2.90;;;16.60;99.90;;;;;;4949542;28;20654;-91
2021/06/29 03:34:12;;;;;;;2.23;2.07;;;16.70;99.90;;;;;;4948101;28;20642;-91
2021/06/29 03:36:41;;;;;;;9.90;3.60;;;16.70;99.90;;;;;;4949234;28;20738;-91
2021/06/29 03:39:10;;;;;;;2.70;2.50;;;16.70;99.90;;;;;;4948655;28;20618;-90
2021/06/29 03:41:41;;;;;;;7.83;2.83;;;16.60;99.90;;;;;;4952721;28;20829;-90
2021/06/29 03:44:13;;;;;;;6.63;3.23;;;16.60;99.90;;;;;;4951404;28;20975;-90
2021/06/29 03:46:44;;;;;;;3.40;3.10;;;16.60;99.90;;;;;;4955080;28;20613;-91
2021/06/29 03:49:15;;;;;;;5.20;3.80;;;16.70;99.90;;;;;;4952528;28;20733;-89
2021/06/29 03:51:43;;;;;;;3.83;3.63;;;16.60;99.90;;;;;;4952450;28;20622;-89
2021/06/29 03:54:10;;;;;;;5.00;3.00;;;16.70;99.90;;;;;;4954954;28;21078;-90
2021/06/29 03:56:47;;;;;;;;;;;;;;;;;;;;;
2021/06/29 03:59:39;;;;;;;3.30;3.00;;;16.70;99.90;;;;;;4953815;28;20627;-91
2021/06/29 04:02:16;;;;;;;4.00;3.70;;;16.70;99.90;;;;;;4950198;28;20705;-92
2021/06/29 04:04:56;;;;;;;3.60;3.30;;;16.70;99.90;;;;;;4966187;28;20761;-91
2021/06/29 04:07:24;;;;;;;5.80;3.43;;;16.70;99.90;;;;;;4951363;28;20637;-92
2021/06/29 04:09:53;;;;;;;3.90;3.60;;;16.70;99.90;;;;;;4950444;28;20717;-90
2021/06/29 04:12:22;;;;;;;4.30;4.00;;;16.70;99.90;;;;;;4950377;28;20672;-93
2021/06/29 04:14:56;;;;;;;6.37;4.60;;;16.70;99.90;;;;;;4950704;28;20649;-92
2021/06/29 04:17:23;;;;;;;5.73;4.60;;;16.80;99.90;;;;;;4947097;28;20726;-92
2021/06/29 04:19:53;;;;;;;4.07;3.77;;;16.70;99.90;;;;;;4948329;28;20665;-90
2021/06/29 04:22:24;;;;;;;3.50;3.20;;;16.70;99.90;;;;;;4949855;28;20697;-91
2021/06/29 04:25:03;;;;;;;4.00;3.70;;;16.70;99.90;;;;;;4951541;28;20719;-90
2021/06/29 04:27:32;;;;;;;3.87;3.20;;;16.70;99.90;;;;;;4935951;29;20648;-90
2021/06/29 04:30:22;;;;;;;;;;;;;;;;;;;;;
2021/06/29 04:32:59;;;;;;;4.87;3.30;;;16.60;99.90;;;;;;4962969;28;20764;-93
2021/06/29 04:35:34;;;;;;;4.17;3.77;;;16.60;99.90;;;;;;4966902;28;20771;-93
2021/06/29 04:38:21;;;;;;;8.73;4.20;;;16.70;99.90;;;;;;4951327;28;20641;-92
2021/06/29 04:40:52;;;;;;;2.80;2.60;;;16.70;99.90;;;;;;4947572;28;20658;-92
2021/06/29 04:43:20;;;;;;;3.67;2.20;;;16.60;99.90;;;;;;4945156;28;20725;-90
2021/06/29 04:46:05;;;;;;;2.70;2.50;;;16.40;99.90;;;;;;4960100;28;20645;-93
2021/06/29 04:48:34;;;;;;;2.10;2.00;;;16.40;99.90;;;;;;4954325;28;20630;-91
2021/06/29 04:51:01;;;;;;;2.50;2.30;;;16.50;99.90;;;;;;4949195;28;20666;-91
2021/06/29 04:53:28;;;;;;;5.57;3.00;;;16.60;99.90;;;;;;4949683;28;21042;-90
2021/06/29 04:55:57;;;;;;;3.40;3.10;;;16.90;99.90;;;;;;4947214;28;20701;-91
2021/06/29 04:58:26;;;;;;;5.43;4.93;;;16.90;99.90;;;;;;4945809;28;20632;-90
2021/06/29 05:00:56;;;;;;;5.80;5.30;;;17.00;99.90;;;;;;4948030;28;20761;-91
2021/06/29 05:03:25;;;;;;;4.90;4.50;;;17.00;99.90;;;;;;4946012;28;21346;-92
2021/06/29 05:05:55;;;;;;;5.27;4.77;;;17.00;99.90;;;;;;4953352;28;20661;-89
2021/06/29 05:08:24;;;;;;;7.27;5.40;;;17.00;99.90;;;;;;4957942;28;20630;-91
2021/06/29 05:10:52;;;;;;;5.47;4.97;;;17.00;99.90;;;;;;4960100;28;20761;-92
2021/06/29 05:13:20;;;;;;;6.50;5.37;;;17.00;99.90;;;;;;4955200;28;20745;-93
2021/06/29 05:15:47;;;;;;;4.30;4.00;;;17.10;99.90;;;;;;4960183;28;20634;-92
2021/06/29 05:18:17;;;;;;;4.20;3.80;;;17.00;99.90;;;;;;4960822;28;20646;-92
2021/06/29 05:20:44;;;;;;;5.70;4.20;;;17.00;99.90;;;;;;4954506;28;20661;-92
2021/06/29 05:23:11;;;;;;;4.97;4.57;;;17.00;99.90;;;;;;4950833;28;21181;-90
2021/06/29 05:25:38;;;;;;;6.80;3.37;;;17.00;99.90;;;;;;4949098;28;20898;-90
2021/06/29 05:28:06;;;;;;;3.97;3.57;;;17.00;99.90;;;;;;4943390;28;20630;-90
2021/06/29 05:30:33;;;;;;;3.40;3.10;;;17.00;99.90;;;;;;4947337;28;20634;-90
2021/06/29 05:33:02;;;;;;;4.53;2.87;;;17.00;99.90;;;;;;4951739;28;20654;-93
2021/06/29 05:35:32;;;;;;;5.43;3.30;;;17.00;99.90;;;;;;4948622;28;20594;-94
2021/06/29 05:38:01;;;;;;;5.77;3.50;;;17.10;99.90;;;;;;4948770;28;21018;-92
2021/06/29 05:40:29;;;;;;;17.77;3.40;;;17.00;99.90;;;;;;4947685;28;20733;-92
2021/06/29 05:42:58;;;;;;;3.50;3.20;;;17.10;99.90;;;;;;4947453;28;20659;-92
2021/06/29 05:45:25;;;;;;;3.60;3.30;;;17.30;99.90;;;;;;4944579;28;20642;-91
2021/06/29 05:47:53;;;;;;;3.87;3.57;;;17.20;99.90;;;;;;4947155;28;20678;-91
2021/06/29 05:50:21;;;;;;;4.00;3.70;;;17.20;99.90;;;;;;4947926;28;21572;-92
2021/06/29 05:52:51;;;;;;;4.50;3.40;;;17.30;99.90;;;;;;4945976;28;20673;-92
2021/06/29 05:55:18;;;;;;;7.00;3.63;;;17.40;99.90;;;;;;4951070;28;21179;-92
2021/06/29 05:57:51;;;;;;;3.80;3.50;;;17.40;99.90;;;;;;4948223;28;20669;-94
2021/06/29 06:00:19;;;;;;;4.13;3.27;;;17.50;99.90;;;;;;4939930;28;20639;-92
2021/06/29 06:02:49;;;;;;;3.60;3.30;;;17.50;99.90;;;;;;4946069;28;20745;-90
2021/06/29 06:05:16;;;;;;;4.27;3.83;;;17.40;99.90;;;;;;4946883;28;20603;-92
2021/06/29 06:07:44;;;;;;;3.63;3.33;;;17.50;99.90;;;;;;4950017;28;21301;-90
2021/06/29 06:10:13;;;;;;;3.57;3.33;;;17.60;99.90;;;;;;4946278;28;20639;-90
2021/06/29 06:12:41;;;;;;;4.37;3.33;;;17.50;99.90;;;;;;4945213;28;20671;-90
2021/06/29 06:15:09;;;;;;;3.73;3.43;;;17.60;99.90;;;;;;4944161;28;20633;-91
2021/06/29 06:17:37;;;;;;;3.77;3.47;;;17.70;99.90;;;;;;4948116;28;21036;-88
2021/06/29 06:20:07;;;;;;;5.23;3.87;;;17.70;99.90;;;;;;4938084;28;20631;-89
2021/06/29 06:22:34;;;;;;;3.43;3.13;;;17.70;99.90;;;;;;4944009;28;20638;-87
2021/06/29 06:25:00;;;;;;;4.93;4.53;;;17.80;99.90;;;;;;4939304;28;20626;-88
2021/06/29 06:27:29;;;;;;;5.77;5.37;;;17.90;99.90;;;;;;4943024;28;21205;-89
2021/06/29 06:29:57;;;;;;;7.23;6.70;;;18.00;99.90;;;;;;4945065;28;20630;-90
2021/06/29 06:32:23;;;;;;;7.70;6.60;;;18.20;99.90;;;;;;4945459;28;20627;-90
2021/06/29 06:34:51;;;;;;;7.00;6.10;;;18.40;99.90;;;;;;4944898;28;20670;-91
2021/06/29 06:37:19;;;;;;;5.90;5.30;;;18.50;99.90;;;;;;4944019;28;20653;-90
2021/06/29 06:39:48;;;;;;;6.43;5.70;;;18.60;99.90;;;;;;4952832;28;21049;-90
2021/06/29 06:42:16;;;;;;;5.70;5.30;;;18.80;99.90;;;;;;4949689;28;20630;-90
2021/06/29 06:44:47;;;;;;;6.80;3.80;;;19.00;99.90;;;;;;4946126;28;20631;-89
2021/06/29 06:47:14;;;;;;;5.57;4.30;;;19.10;99.90;;;;;;4945965;28;20706;-90
2021/06/29 06:49:40;;;;;;;4.30;4.00;;;19.20;99.90;;;;;;4957855;28;20656;-90
2021/06/29 06:52:08;;;;;;;2.90;2.70;;;19.20;99.90;;;;;;4953491;28;20623;-89
2021/06/29 06:54:35;;;;;;;2.47;2.27;;;19.40;99.90;;;;;;4941981;28;21272;-91
2021/06/29 06:57:02;;;;;;;2.80;2.50;;;19.40;99.90;;;;;;4943889;28;20734;-92
2021/06/29 06:59:30;;;;;;;4.57;1.83;;;19.60;99.90;;;;;;4945354;28;20662;-92
2021/06/29 07:02:04;;;;;;;2.80;2.00;;;19.60;99.90;;;;;;4946343;28;20750;-92
2021/06/29 07:04:30;;;;;;;2.37;2.17;;;19.60;99.90;;;;;;4945802;28;21505;-92
2021/06/29 07:06:57;;;;;;;3.50;2.37;;;19.80;99.90;;;;;;4944232;28;21375;-93
2021/06/29 07:09:24;;;;;;;2.40;2.20;;;19.90;99.90;;;;;;4942880;28;21109;-93
2021/06/29 07:11:51;;;;;;;2.20;1.80;;;20.00;99.90;;;;;;4944570;28;20722;-92
2021/06/29 07:14:19;;;;;;;1.83;1.70;;;20.10;99.90;;;;;;4942641;28;20725;-93
2021/06/29 07:16:46;;;;;;;2.20;1.83;;;20.30;99.90;;;;;;4944055;28;20689;-93
2021/06/29 07:19:14;;;;;;;2.50;1.67;;;20.30;99.90;;;;;;4946292;28;20757;-93
2021/06/29 07:21:42;;;;;;;3.67;2.13;;;20.20;99.90;;;;;;4945434;28;20657;-92
2021/06/29 07:24:08;;;;;;;2.50;2.30;;;20.30;99.90;;;;;;4946588;28;20646;-93
2021/06/29 07:26:35;;;;;;;4.13;2.67;;;20.40;99.90;;;;;;4945583;28;20626;-92
2021/06/29 07:29:04;;;;;;;2.60;2.40;;;20.60;99.90;;;;;;4939285;28;21221;-93
2021/06/29 07:31:33;;;;;;;4.57;3.57;;;20.60;99.90;;;;;;4942163;28;20630;-92
2021/06/29 07:34:01;;;;;;;5.10;2.47;;;20.70;99.90;;;;;;4943689;28;20674;-93
2021/06/29 07:36:30;;;;;;;2.70;2.00;;;20.60;99.90;;;;;;4946687;28;20658;-93
2021/06/29 07:38:57;;;;;;;3.23;1.93;;;20.70;99.90;;;;;;4938531;28;20643;-92
2021/06/29 07:41:26;;;;;;;2.13;1.60;;;20.80;99.90;;;;;;4942094;28;21154;-93
2021/06/29 07:43:53;;;;;;;1.90;1.50;;;20.90;99.90;;;;;;4943452;28;20638;-91
2021/06/29 07:46:21;;;;;;;2.03;1.93;;;21.00;99.90;;;;;;4948653;28;20650;-93
2021/06/29 07:48:49;;;;;;;1.50;1.40;;;20.90;99.90;;;;;;4945050;28;20642;-92
2021/06/29 07:51:16;;;;;;;2.70;1.90;;;20.90;99.90;;;;;;4947383;28;20614;-93
2021/06/29 07:53:46;;;;;;;1.50;1.40;;;21.10;99.90;;;;;;4947757;28;20682;-90
2021/06/29 07:56:16;;;;;;;1.73;1.63;;;21.10;99.90;;;;;;4939429;28;20677;-91
2021/06/29 07:58:45;;;;;;;2.33;1.43;;;21.10;99.90;;;;;;4943840;28;20742;-91
2021/06/29 08:01:13;;;;;;;3.33;1.40;;;21.10;99.90;;;;;;4943061;28;20891;-90
2021/06/29 08:03:40;;;;;;;1.60;1.50;;;21.00;99.90;;;;;;4945129;28;20665;-91
2021/06/29 08:06:07;;;;;;;1.40;1.30;;;21.10;99.90;;;;;;4928155;28;20684;-91
2021/06/29 08:08:34;;;;;;;2.00;1.50;;;20.90;99.90;;;;;;4943033;28;21001;-91
2021/06/29 08:11:06;;;;;;;2.00;1.40;;;21.00;99.90;;;;;;4940580;28;21432;-91
2021/06/29 08:13:33;;;;;;;2.60;2.40;;;21.00;99.90;;;;;;4938826;28;20729;-92
2021/06/29 08:16:00;;;;;;;2.10;1.90;;;21.20;99.90;;;;;;4940623;28;20645;-91
2021/06/29 08:18:28;;;;;;;2.77;1.73;;;21.40;99.90;;;;;;4941691;28;21221;-91
2021/06/29 08:20:55;;;;;;;1.93;1.47;;;21.50;99.90;;;;;;4946303;28;20712;-91
2021/06/29 08:23:22;;;;;;;2.77;1.20;;;21.50;99.90;;;;;;4948473;28;20658;-91
2021/06/29 08:25:49;;;;;;;1.80;1.70;;;21.40;99.90;;;;;;4951213;28;20634;-91
2021/06/29 08:28:26;;;;;;;1.07;1.00;;;21.50;99.90;;;;;;4950516;28;20634;-92
2021/06/29 08:30:53;;;;;;;1.43;1.30;;;21.50;99.90;;;;;;4950765;28;21383;-91
2021/06/29 08:33:22;;;;;;;2.63;1.60;;;21.60;99.90;;;;;;4949601;28;21594;-91
2021/06/29 08:35:51;;;;;;;1.30;1.10;;;21.60;99.90;;;;;;4947904;28;20626;-91
2021/06/29 08:38:19;;;;;;;0.90;0.87;;;21.70;99.90;;;;;;4948861;28;20631;-91
2021/06/29 08:40:47;;;;;;;2.00;0.80;;;21.80;99.90;;;;;;4943262;28;20633;-92
2021/06/29 08:43:14;;;;;;;1.27;1.17;;;21.90;99.90;;;;;;4938406;28;20659;-91
2021/06/29 08:45:43;;;;;;;2.83;1.17;;;22.00;99.90;;;;;;4942494;28;20990;-92
2021/06/29 08:48:12;;;;;;;2.20;1.30;;;22.00;99.90;;;;;;4943597;28;20606;-92
2021/06/29 08:50:40;;;;;;;1.33;1.13;;;22.10;99.90;;;;;;4945581;28;20717;-91
2021/06/29 08:53:11;;;;;;;1.40;1.30;;;22.00;99.90;;;;;;4941059;28;20713;-91
2021/06/29 08:55:42;;;;;;;2.50;1.30;;;22.00;99.90;;;;;;4943335;28;20682;-91
2021/06/29 08:58:09;;;;;;;1.43;1.10;;;22.00;99.90;;;;;;4950653;28;20634;-91
2021/06/29 09:00:37;;;;;;;3.90;1.30;;;22.10;99.90;;;;;;4954080;28;20599;-91
2021/06/29 09:03:07;;;;;;;1.37;1.27;;;22.30;99.90;;;;;;4966468;28;20666;-92
2021/06/29 09:05:36;;;;;;;3.10;1.57;;;22.50;99.90;;;;;;4969198;28;20632;-91
2021/06/29 09:08:06;;;;;;;1.40;1.30;;;22.40;99.90;;;;;;4953282;28;20641;-91
2021/06/29 09:10:35;;;;;;;2.30;1.20;;;22.50;99.90;;;;;;4951120;28;20646;-91
2021/06/29 09:13:02;;;;;;;1.80;1.10;;;22.50;99.90;;;;;;4949654;28;21264;-91
2021/06/29 09:15:33;;;;;;;2.37;1.10;;;22.50;99.90;;;;;;4949203;28;20678;-92
2021/06/29 09:18:28;;;;;;;1.60;1.50;;;22.70;99.90;;;;;;4945464;28;20689;-92
2021/06/29 09:20:59;;;;;;;2.00;1.27;;;22.90;99.90;;;;;;4946084;28;20648;-92
2021/06/29 09:23:29;;;;;;;2.20;1.40;;;22.80;99.90;;;;;;4944229;28;20702;-92
2021/06/29 09:25:59;;;;;;;1.60;1.33;;;22.80;99.90;;;;;;4946096;28;20622;-91
2021/06/29 09:28:30;;;;;;;1.20;1.10;;;22.80;99.90;;;;;;4947105;28;20634;-91
2021/06/29 09:31:00;;;;;;;1.23;1.10;;;22.70;99.90;;;;;;4949337;28;21062;-91
2021/06/29 09:33:32;;;;;;;1.27;1.27;;;22.60;99.90;;;;;;4945247;28;21154;-90
2021/06/29 09:36:06;;;;;;;2.13;1.50;;;22.80;99.90;;;;;;4948117;28;21165;-91
2021/06/29 09:38:34;;;;;;;1.90;1.30;;;22.90;99.90;;;;;;4950267;28;20630;-90
2021/06/29 09:41:05;;;;;;;1.67;1.33;;;23.20;99.90;;;;;;4945477;28;20742;-91
2021/06/29 09:43:39;;;;;;;2.07;1.60;;;23.30;99.90;;;;;;4943830;28;21100;-91
2021/06/29 09:46:08;;;;;;;1.30;1.20;;;23.40;99.90;;;;;;4947288;28;20641;-92
2021/06/29 09:48:39;;;;;;;2.83;1.50;;;23.30;99.90;;;;;;4944483;28;20645;-90
2021/06/29 09:51:14;;;;;;;2.90;1.60;;;23.60;99.90;;;;;;4947376;28;20696;-92
2021/06/29 09:53:42;;;;;;;1.33;1.23;;;23.70;99.90;;;;;;4945593;28;20649;-92
2021/06/29 09:56:13;;;;;;;1.50;1.40;;;23.60;99.90;;;;;;4946821;28;20654;-92
2021/06/29 09:58:41;;;;;;;3.00;1.40;;;23.80;99.90;;;;;;4950045;28;20641;-92
2021/06/29 10:01:09;;;;;;;1.73;1.30;;;24.00;99.90;;;;;;4931392;28;20634;-93
2021/06/29 10:03:39;;;;;;;2.43;1.53;;;24.10;99.90;;;;;;4947957;28;20710;-94
2021/06/29 10:06:16;;;;;;;2.10;1.30;;;24.40;99.90;;;;;;4946260;28;20638;-94
2021/06/29 10:17:10;;;;;;;1.60;1.20;;;24.30;99.90;;;;;;4978157;28;20662;-96
2021/06/29 10:28:51;;;;;;;1.60;1.50;;;25.00;99.90;;;;;;4995362;23;20690;-96
2021/06/29 10:34:41;;;;;;;1.20;1.10;;;24.90;99.90;;;;;;4958395;28;21200;-96
2021/06/29 10:37:08;;;;;;;1.33;1.23;;;24.80;99.90;;;;;;4934480;28;20667;-96
2021/06/29 10:39:43;;;;;;;3.83;1.17;;;24.90;99.90;;;;;;4931200;29;21015;-96
2021/06/29 10:42:17;;;;;;;1.10;1.10;;;25.30;99.90;;;;;;4933103;29;20741;-95
2021/06/29 10:44:51;;;;;;;1.47;1.37;;;25.70;99.90;;;;;;4937125;29;20631;-95
2021/06/29 10:47:28;;;;;;;1.77;1.67;;;25.90;99.90;;;;;;4933105;29;20669;-95
2021/06/29 10:49:58;;;;;;;4.43;1.40;;;26.20;99.90;;;;;;4929800;29;21202;-95
2021/06/29 10:52:40;;;;;;;1.27;1.17;;;26.60;99.90;;;;;;4934693;29;20643;-95
2021/06/29 10:55:21;;;;;;;1.00;1.00;;;26.30;99.90;;;;;;4935391;29;20674;-95
2021/06/29 10:57:51;;;;;;;1.60;1.23;;;25.80;99.90;;;;;;4937669;29;21032;-95
2021/06/29 11:00:32;;;;;;;2.53;1.70;;;25.50;99.90;;;;;;4935707;29;20734;-95
2021/06/29 11:03:06;;;;;;;1.80;1.30;;;25.90;99.90;;;;;;4933087;29;20638;-96
2021/06/29 11:05:38;;;;;;;2.07;1.57;;;26.30;99.90;;;;;;4932647;29;20646;-96
2021/06/29 11:11:01;;;;;;;1.57;1.47;;;26.70;99.90;;;;;;4927386;29;21479;-96
2021/06/29 11:13:48;;;;;;;1.57;1.47;;;27.20;99.90;;;;;;4926823;29;20647;-96
2021/06/29 11:16:53;;;;;;;1.30;1.20;;;27.50;99.90;;;;;;4940587;29;21015;-96
2021/06/29 11:20:07;;;;;;;2.07;1.83;;;27.80;99.90;;;;;;4941854;29;20618;-96
2021/06/29 11:23:16;;;;;;;1.20;1.20;;;28.00;99.90;;;;;;4936579;29;20658;-96
2021/06/29 11:25:50;;;;;;;1.47;1.00;;;28.30;99.90;;;;;;4927272;28;20631;-96
2021/06/29 11:28:21;;;;;;;1.50;1.40;;;28.50;99.90;;;;;;4925262;29;20678;-95
2021/06/29 11:31:29;;;;;;;1.57;1.47;;;28.30;99.90;;;;;;4929451;29;20750;-96
2021/06/29 11:34:03;;;;;;;4.53;1.53;;;28.30;99.90;;;;;;4913391;29;20737;-96
2021/06/29 11:36:43;;;;;;;1.37;1.27;;;28.70;97.90;;;;;;4928093;29;20739;-96
2021/06/29 11:39:34;;;;;;;2.13;1.57;;;28.70;99.50;;;;;;4929258;29;21175;-96
2021/06/29 11:42:24;;;;;;;1.50;1.40;;;28.10;99.90;;;;;;4931013;29;20638;-96
2021/06/29 11:45:02;;;;;;;1.93;1.40;;;27.80;99.70;;;;;;4927548;29;20643;-96
2021/06/29 11:47:41;;;;;;;2.20;1.20;;;28.20;99.90;;;;;;4925409;29;21213;-96
2021/06/29 11:50:18;;;;;;;1.40;1.30;;;28.00;99.90;;;;;;4922857;29;20635;-96
2021/06/29 11:52:45;;;;;;;1.70;1.60;;;28.20;99.10;;;;;;4928800;29;20670;-96
2021/06/29 11:55:19;;;;;;;1.90;1.60;;;27.90;99.90;;;;;;4930414;29;20759;-96
2021/06/29 11:57:50;;;;;;;1.20;1.10;;;27.40;99.90;;;;;;4925149;29;20666;-96
2021/06/29 12:00:26;;;;;;;1.33;1.23;;;27.10;99.90;;;;;;4930229;29;20623;-96
2021/06/29 12:02:58;;;;;;;1.20;1.10;;;27.20;99.90;;;;;;4936237;29;20655;-95
2021/06/29 12:05:28;;;;;;;1.93;1.53;;;27.20;99.90;;;;;;4930939;29;20722;-96
2021/06/29 12:08:02;;;;;;;1.67;1.57;;;27.50;99.90;;;;;;4935642;29;20702;-96
2021/06/29 12:10:37;;;;;;;1.67;1.57;;;27.50;99.90;;;;;;4936006;29;21046;-96
2021/06/29 12:13:08;;;;;;;2.17;1.57;;;27.90;99.70;;;;;;4936679;29;20674;-96
2021/06/29 12:15:43;;;;;;;1.57;1.47;;;28.50;98.30;;;;;;4934100;29;20662;-95
2021/06/29 12:18:15;;;;;;;1.37;1.27;;;29.20;96.00;;;;;;4930248;29;20678;-96
2021/06/29 12:20:47;;;;;;;1.33;1.20;;;29.40;97.10;;;;;;4929518;29;20658;-96
2021/06/29 12:23:21;;;;;;;2.13;1.40;;;28.80;95.80;;;;;;4927811;29;20639;-95
2021/06/29 12:25:52;;;;;;;2.23;1.67;;;29.80;95.00;;;;;;4929636;29;20779;-95
2021/06/29 12:28:22;;;;;;;1.50;1.40;;;30.70;92.20;;;;;;4916968;29;20691;-95
2021/06/29 12:30:51;;;;;;;2.20;1.70;;;30.90;92.20;;;;;;4906010;29;21238;-95
2021/06/29 12:33:21;;;;;;;2.00;1.83;;;30.90;90.70;;;;;;4910179;29;21101;-92
2021/06/29 12:35:50;;;;;;;1.93;1.53;;;29.80;92.90;;;;;;4911551;29;20663;-94
2021/06/29 12:38:21;;;;;;;2.20;1.27;;;29.30;95.50;;;;;;4910146;29;20632;-93
2021/06/29 12:40:56;;;;;;;3.90;1.37;;;28.70;95.90;;;;;;4910548;29;20731;-93
2021/06/29 12:43:30;;;;;;;2.00;1.90;;;28.50;95.80;;;;;;4918315;29;20742;-93
2021/06/29 12:46:15;;;;;;;1.70;1.60;;;28.30;95.30;;;;;;4906570;29;20794;-93
2021/06/29 12:49:00;;;;;;;1.87;1.50;;;27.80;98.00;;;;;;4931941;29;20631;-93
2021/06/29 12:51:29;;;;;;;1.20;1.10;;;27.20;99.90;;;;;;4919501;29;20691;-93
2021/06/29 12:54:05;;;;;;;1.63;1.40;;;27.10;99.90;;;;;;4915355;29;20631;-93
2021/06/29 12:56:36;;;;;;;1.57;1.47;;;26.90;99.90;;;;;;4918865;29;20682;-94
2021/06/29 12:59:07;;;;;;;2.10;1.40;;;26.60;99.90;;;;;;4918627;29;20640;-93
2021/06/29 13:01:39;;;;;;;1.77;1.40;;;26.20;99.90;;;;;;4914794;29;20640;-93
2021/06/29 13:04:11;;;;;;;1.90;1.80;;;26.00;99.90;;;;;;4912092;29;20640;-93
2021/06/29 13:06:41;;;;;;;1.63;1.53;;;25.80;99.90;;;;;;4916232;29;20668;-95
2021/06/29 13:09:17;;;;;;;3.03;1.70;;;25.50;99.90;;;;;;4914883;29;20743;-95
2021/06/29 13:11:55;;;;;;;3.00;1.10;;;25.50;99.90;;;;;;4918731;29;20676;-90
2021/06/29 13:14:23;;;;;;;0.70;0.67;;;25.00;99.90;;;;;;4920420;29;20632;-91
2021/06/29 13:17:03;;;;;;;4.00;0.77;;;23.80;99.90;;;;;;4915341;29;20695;-95
2021/06/29 13:19:33;;;;;;;7.27;1.00;;;22.40;99.90;;;;;;4912321;29;21116;-92
2021/06/29 13:22:05;;;;;;;3.80;0.90;;;20.80;99.90;;;;;;4914839;29;20639;-93
2021/06/29 13:24:43;;;;;;;1.83;1.33;;;19.40;99.90;;;;;;4909166;29;20667;-95
2021/06/29 13:27:13;;;;;;;2.30;1.20;;;19.20;99.90;;;;;;4913611;29;21251;-92
2021/06/29 13:29:46;;;;;;;6.70;2.50;;;18.60;99.90;;;;;;4936110;29;20741;-93
2021/06/29 13:32:20;;;;;;;2.77;1.37;;;18.10;99.90;;;;;;4933617;29;20639;-93
2021/06/29 13:35:01;;;;;;;1.80;1.20;;;17.40;99.90;;;;;;4934292;29;20631;-96
2021/06/29 13:37:31;;;;;;;2.63;1.20;;;17.20;99.90;;;;;;4941146;29;20726;-94
2021/06/29 13:40:15;;;;;;;4.87;1.70;;;17.20;99.90;;;;;;4932467;29;20699;-95